Terminal Aerodrome Forecast
Issued by NWS Twin Cities, MN

Home | Current Version | Previous Version | Text Only | Print | Product List | Glossary Off
Versions: 1 2 3 4 5 6 7 8 9 10 11 12 13 14

000
FTUS43 KMPX 262335
TAFEAU
TAF
KEAU 262335Z 2700/2724 32008KT P6SM SCT008 OVC012
      TEMPO 2702/2706 OVC008
     FM271900 28011KT P6SM BKN020
     FM272200 28010KT P6SM BKN035=

USA.gov is the U.S. government's official web portal to all federal, state and local government web resources and services.